createdAt,value
2019-05-22T00:00:49.357Z,20.70
2019-05-22T00:03:21.335Z,24.73
2019-05-22T00:05:51.380Z,21.63
2019-05-22T00:08:20.351Z,25.40
2019-05-22T00:10:49.487Z,22.53
2019-05-22T00:13:23.052Z,25.37
2019-05-22T00:15:53.944Z,26.10
2019-05-22T00:18:23.349Z,28.90
2019-05-22T00:20:53.880Z,28.07
2019-05-22T00:23:23.308Z,29.67
2019-05-22T00:25:54.442Z,35.23
2019-05-22T00:28:25.468Z,35.33
2019-05-22T00:30:55.412Z,37.47
2019-05-22T00:33:25.061Z,35.20
2019-05-22T00:35:56.032Z,32.67
2019-05-22T00:38:25.335Z,37.67
2019-05-22T00:41:03.320Z,37.57
2019-05-22T00:43:37.636Z,37.60
2019-05-22T00:46:09.788Z,38.63
2019-05-22T00:48:41.563Z,43.53
2019-05-22T00:51:30.018Z,39.63
2019-05-22T00:54:08.143Z,46.07
2019-05-22T00:56:43.243Z,43.10
2019-05-22T00:59:18.978Z,40.63
2019-05-22T01:01:53.030Z,36.67
2019-05-22T01:04:27.207Z,39.97
2019-05-22T01:06:57.967Z,42.20
2019-05-22T01:09:32.696Z,42.23
2019-05-22T01:12:03.287Z,42.50
2019-05-22T01:14:42.647Z,41.33
2019-05-22T01:17:04.622Z,40.20
2019-05-22T01:19:34.404Z,41.53
2019-05-22T01:22:05.487Z,41.87
2019-05-22T01:24:35.782Z,40.53
2019-05-22T01:27:05.366Z,38.77
2019-05-22T01:29:36.592Z,38.73
2019-05-22T01:32:17.201Z,36.57
2019-05-22T01:34:47.170Z,35.40
2019-05-22T01:37:18.206Z,41.60
2019-05-22T01:40:04.545Z,37.97
2019-05-22T01:42:41.331Z,39.67
2019-05-22T01:45:18.521Z,42.67
2019-05-22T01:47:55.145Z,39.70
2019-05-22T01:50:55.448Z,36.37
2019-05-22T01:53:32.805Z,35.60
2019-05-22T01:56:06.710Z,36.07
2019-05-22T01:58:39.144Z,33.83
2019-05-22T02:01:13.945Z,36.20
2019-05-22T02:03:44.742Z,30.20
2019-05-22T02:06:14.576Z,34.57
2019-05-22T02:08:51.867Z,33.13
2019-05-22T02:11:24.572Z,34.10
2019-05-22T02:13:58.266Z,34.47
2019-05-22T02:16:31.442Z,30.37
2019-05-22T02:19:03.176Z,28.67
2019-05-22T02:21:33.687Z,32.23
2019-05-22T02:24:05.039Z,28.90
2019-05-22T02:26:34.795Z,33.20
2019-05-22T02:29:05.289Z,27.47
2019-05-22T02:31:36.180Z,29.87
2019-05-22T02:34:07.245Z,29.77
2019-05-22T02:36:38.735Z,36.37
2019-05-22T02:39:13.605Z,33.57
2019-05-22T02:41:48.266Z,31.53
2019-05-22T02:44:17.673Z,30.17
2019-05-22T02:46:47.002Z,32.63
2019-05-22T02:49:17.353Z,34.30
2019-05-22T02:51:48.519Z,34.63
2019-05-22T02:54:18.310Z,34.70
2019-05-22T02:56:47.294Z,32.70
2019-05-22T02:59:18.027Z,31.93
2019-05-22T03:01:47.575Z,31.60
2019-05-22T03:04:20.402Z,32.97
2019-05-22T03:06:51.036Z,31.33
2019-05-22T03:09:39.032Z,29.30
2019-05-22T03:12:11.127Z,30.90
2019-05-22T03:14:43.851Z,32.67
2019-05-22T03:17:30.253Z,33.37
2019-05-22T03:20:01.974Z,32.70
2019-05-22T03:22:39.948Z,30.43
2019-05-22T03:25:15.432Z,32.63
2019-05-22T03:27:50.198Z,30.50
2019-05-22T03:30:24.182Z,27.77
2019-05-22T03:32:55.484Z,30.40
2019-05-22T03:35:26.267Z,26.13
2019-05-22T03:37:59.091Z,26.63
2019-05-22T03:40:29.853Z,27.77
2019-05-22T03:43:04.496Z,24.50
2019-05-22T03:45:35.316Z,21.77
2019-05-22T03:48:06.414Z,23.27
2019-05-22T03:50:35.933Z,20.03
2019-05-22T03:53:15.743Z,21.00
2019-05-22T03:55:46.278Z,21.27
2019-05-22T03:58:16.694Z,20.33
2019-05-22T04:00:46.320Z,19.97
2019-05-22T04:03:17.668Z,18.87
2019-05-22T04:05:48.657Z,19.60
2019-05-22T04:08:19.700Z,20.23
2019-05-22T04:10:55.810Z,20.50
2019-05-22T04:13:25.833Z,21.10
2019-05-22T04:15:54.931Z,26.47
2019-05-22T04:18:26.053Z,18.57
2019-05-22T04:20:57.512Z,18.93
2019-05-22T04:23:27.296Z,19.10
2019-05-22T04:25:57.691Z,19.87
2019-05-22T04:28:29.193Z,19.27
2019-05-22T04:31:00.016Z,21.50
2019-05-22T04:33:30.680Z,21.87
2019-05-22T04:36:00.574Z,20.43
2019-05-22T04:38:29.723Z,23.03
2019-05-22T04:41:02.143Z,21.50
2019-05-22T04:43:33.857Z,21.00
2019-05-22T04:46:05.328Z,24.10
2019-05-22T04:48:36.294Z,22.83
2019-05-22T04:51:25.228Z,21.67
2019-05-22T04:53:54.730Z,22.93
2019-05-22T04:56:24.275Z,20.80
2019-05-22T04:58:54.884Z,20.33
2019-05-22T05:01:24.570Z,26.37
2019-05-22T05:03:54.059Z,21.00
2019-05-22T05:06:26.161Z,21.43
2019-05-22T05:08:56.402Z,24.37
2019-05-22T05:11:29.332Z,19.53
2019-05-22T05:13:58.353Z,20.30
2019-05-22T05:16:27.336Z,17.67
2019-05-22T05:18:57.043Z,16.77
2019-05-22T05:21:26.090Z,18.27
2019-05-22T05:23:56.567Z,20.30
2019-05-22T05:26:26.734Z,20.00
2019-05-22T05:28:56.357Z,18.40
2019-05-22T05:31:25.906Z,16.37
2019-05-22T05:34:07.994Z,16.50
2019-05-22T05:36:37.613Z,14.70
2019-05-22T05:39:12.202Z,16.33
2019-05-22T05:41:41.896Z,16.27
2019-05-22T05:44:10.809Z,15.03
2019-05-22T05:46:39.711Z,15.07
2019-05-22T05:49:08.855Z,17.23
2019-05-22T05:51:45.180Z,19.47
2019-05-22T05:54:15.413Z,21.63
2019-05-22T05:56:48.543Z,15.70
2019-05-22T05:59:20.036Z,14.47
2019-05-22T06:01:54.055Z,13.70
2019-05-22T06:04:35.309Z,17.50
2019-05-22T06:07:19.744Z,13.33
2019-05-22T06:09:57.678Z,13.60
2019-05-22T06:12:27.295Z,16.33
2019-05-22T06:14:56.831Z,12.87
2019-05-22T06:18:14.961Z,13.20
2019-05-22T06:20:44.416Z,13.87
2019-05-22T06:23:55.356Z,13.80
2019-05-22T06:26:39.059Z,15.77
2019-05-22T06:29:10.717Z,13.80
2019-05-22T06:32:12.673Z,14.23
2019-05-22T06:34:41.996Z,11.10
2019-05-22T06:37:20.096Z,12.97
2019-05-22T06:39:49.285Z,13.73
2019-05-22T06:42:18.565Z,16.90
2019-05-22T06:44:47.623Z,14.63
2019-05-22T06:47:23.255Z,14.10
2019-05-22T06:49:54.322Z,19.00
2019-05-22T06:52:23.636Z,12.87
2019-05-22T06:54:53.920Z,14.60
2019-05-22T06:57:36.126Z,14.47
2019-05-22T07:00:15.530Z,13.47
2019-05-22T07:02:45.059Z,13.80
2019-05-22T07:05:14.529Z,13.70
2019-05-22T07:07:43.958Z,12.03
2019-05-22T07:10:14.541Z,15.57
2019-05-22T07:12:44.467Z,15.33
2019-05-22T07:15:36.535Z,16.03
2019-05-22T07:18:07.225Z,13.20
2019-05-22T07:20:38.447Z,12.47
2019-05-22T07:23:09.423Z,14.17
2019-05-22T07:25:40.397Z,12.87
2019-05-22T07:28:09.718Z,12.90
2019-05-22T07:30:39.452Z,15.33
2019-05-22T07:33:09.835Z,11.13
2019-05-22T07:36:07.790Z,10.13
2019-05-22T07:38:10.062Z,11.33
2019-05-22T07:40:39.550Z,12.13
2019-05-22T07:43:08.586Z,13.43
2019-05-22T07:45:37.755Z,14.30
2019-05-22T07:48:08.006Z,11.10
2019-05-22T07:50:42.127Z,11.80
2019-05-22T07:53:11.402Z,11.13
2019-05-22T07:55:41.350Z,13.70
2019-05-22T07:58:16.327Z,11.40
2019-05-22T08:01:00.014Z,10.93
2019-05-22T08:03:31.658Z,10.97
2019-05-22T08:06:02.766Z,10.17
2019-05-22T08:08:35.378Z,11.53
2019-05-22T08:11:05.410Z,12.93
2019-05-22T08:13:35.298Z,12.00
2019-05-22T08:16:04.782Z,9.23
2019-05-22T08:18:39.768Z,10.80
2019-05-22T08:21:10.529Z,11.97
2019-05-22T08:23:39.568Z,14.40
2019-05-22T08:26:10.508Z,8.27
2019-05-22T08:28:40.927Z,12.83
2019-05-22T08:31:10.997Z,9.67
2019-05-22T08:33:39.927Z,10.43
2019-05-22T08:36:09.637Z,11.30
2019-05-22T08:38:39.366Z,12.63
2019-05-22T08:41:09.755Z,12.63
2019-05-22T08:44:03.175Z,10.03
2019-05-22T08:46:11.992Z,11.00
2019-05-22T08:48:47.759Z,11.37
2019-05-22T08:51:15.087Z,13.43
2019-05-22T08:53:48.113Z,11.90
2019-05-22T08:56:15.213Z,11.97
2019-05-22T08:58:46.190Z,14.23
2019-05-22T09:01:15.650Z,12.70
2019-05-22T09:03:45.547Z,13.73
2019-05-22T09:06:14.514Z,12.30
2019-05-22T09:08:43.408Z,12.77
2019-05-22T09:11:12.727Z,11.93
2019-05-22T09:13:42.182Z,14.07
2019-05-22T09:16:12.272Z,13.53
2019-05-22T09:18:41.913Z,13.10
2019-05-22T09:21:11.902Z,13.67
2019-05-22T09:23:41.999Z,12.90
2019-05-22T09:26:30.434Z,13.30
2019-05-22T09:28:59.444Z,13.00
2019-05-22T09:31:28.915Z,11.67
2019-05-22T09:33:58.997Z,13.57
2019-05-22T09:36:28.420Z,12.43
2019-05-22T09:38:57.782Z,11.60
2019-05-22T09:41:27.120Z,15.77
2019-05-22T09:43:56.799Z,11.10
2019-05-22T09:46:26.384Z,15.13
2019-05-22T09:48:56.825Z,10.63
2019-05-22T09:51:26.175Z,10.97
2019-05-22T09:53:55.679Z,12.33
2019-05-22T09:56:27.037Z,11.67
2019-05-22T09:58:56.788Z,12.67
2019-05-22T10:01:25.870Z,11.40
2019-05-22T10:03:54.892Z,12.07
2019-05-22T10:06:23.884Z,13.23
2019-05-22T10:08:53.132Z,11.53
2019-05-22T10:11:22.627Z,13.37
2019-05-22T10:13:52.358Z,14.37
2019-05-22T10:16:22.286Z,9.73
2019-05-22T10:18:53.309Z,10.73
2019-05-22T10:21:23.251Z,13.23
2019-05-22T10:23:52.477Z,10.77
2019-05-22T10:26:22.445Z,11.37
2019-05-22T10:28:52.168Z,10.00
2019-05-22T10:31:23.064Z,12.93
2019-05-22T10:33:52.380Z,10.23
2019-05-22T10:36:23.774Z,10.83
2019-05-22T10:38:53.048Z,12.83
2019-05-22T10:41:22.571Z,11.20
2019-05-22T10:43:52.024Z,12.93
2019-05-22T10:46:21.004Z,13.43
2019-05-22T10:48:50.622Z,11.50
2019-05-22T10:51:19.710Z,14.47
2019-05-22T10:53:49.230Z,11.07
2019-05-22T10:56:18.931Z,11.50
2019-05-22T10:58:48.189Z,15.00
2019-05-22T11:01:23.176Z,11.70
2019-05-22T11:03:53.480Z,11.80
2019-05-22T11:06:23.908Z,12.37
2019-05-22T11:08:53.858Z,10.60
2019-05-22T11:11:23.380Z,14.63
2019-05-22T11:14:01.795Z,11.30
2019-05-22T11:16:33.680Z,10.73
2019-05-22T11:19:04.978Z,11.53
2019-05-22T11:21:36.193Z,27.47
2019-05-22T11:24:08.389Z,11.50
2019-05-22T11:26:37.937Z,14.60
2019-05-22T11:29:09.210Z,12.67
2019-05-22T11:31:39.841Z,12.80
2019-05-22T11:34:09.991Z,13.13
2019-05-22T11:36:40.151Z,13.60
2019-05-22T11:39:13.961Z,12.47
2019-05-22T11:41:43.067Z,12.17
2019-05-22T11:44:13.261Z,13.73
2019-05-22T11:46:43.305Z,11.90
2019-05-22T11:49:12.329Z,11.07
2019-05-22T11:51:41.904Z,12.77
2019-05-22T11:54:11.388Z,11.57
2019-05-22T11:56:41.082Z,11.50
2019-05-22T11:59:11.267Z,11.33
2019-05-22T12:01:40.587Z,10.63
2019-05-22T12:04:14.191Z,11.47
2019-05-22T12:06:45.156Z,9.87
2019-05-22T12:09:14.823Z,11.90
2019-05-22T12:11:45.181Z,11.37
2019-05-22T12:14:15.876Z,13.33
2019-05-22T12:16:45.063Z,11.60
2019-05-22T12:19:14.400Z,11.77
2019-05-22T12:21:44.151Z,10.40
2019-05-22T12:24:26.062Z,13.90
2019-05-22T12:26:44.185Z,11.00
2019-05-22T12:29:17.175Z,11.30
2019-05-22T12:31:45.378Z,16.33
2019-05-22T12:34:15.149Z,10.80
2019-05-22T12:36:44.860Z,11.60
2019-05-22T12:39:15.678Z,13.13
2019-05-22T12:42:07.968Z,16.63
2019-05-22T12:44:37.707Z,10.67
2019-05-22T12:47:10.742Z,11.33
2019-05-22T12:49:40.946Z,11.30
2019-05-22T12:52:11.317Z,13.30
2019-05-22T12:54:47.015Z,10.97
2019-05-22T12:57:11.766Z,10.90
2019-05-22T12:59:41.977Z,15.43
2019-05-22T13:02:14.616Z,11.47
2019-05-22T13:04:44.233Z,11.90
2019-05-22T13:07:13.821Z,14.87
2019-05-22T13:09:43.136Z,12.23
2019-05-22T13:12:14.634Z,11.63
2019-05-22T13:14:43.800Z,12.20
2019-05-22T13:17:15.153Z,10.77
2019-05-22T13:19:46.605Z,10.33
2019-05-22T13:22:16.982Z,9.60
2019-05-22T13:24:47.130Z,11.10
2019-05-22T13:27:17.652Z,11.50
2019-05-22T13:29:48.247Z,12.17
2019-05-22T13:32:19.965Z,9.13
2019-05-22T13:34:50.450Z,11.43
2019-05-22T13:37:20.385Z,9.63
2019-05-22T13:39:49.912Z,10.20
2019-05-22T13:42:19.907Z,11.17
2019-05-22T13:44:49.532Z,10.60
2019-05-22T13:47:19.236Z,9.83
2019-05-22T13:49:48.841Z,9.90
2019-05-22T13:52:17.906Z,10.27
2019-05-22T13:54:47.702Z,8.70
2019-05-22T13:57:17.514Z,11.43
2019-05-22T13:59:52.443Z,11.10
2019-05-22T14:02:26.970Z,10.00
2019-05-22T14:04:53.739Z,10.90
2019-05-22T14:07:22.847Z,10.03
2019-05-22T14:09:54.036Z,8.67
2019-05-22T14:12:23.470Z,11.13
2019-05-22T14:14:52.847Z,9.17
2019-05-22T14:17:22.422Z,9.80
2019-05-22T14:19:51.844Z,9.37
2019-05-22T14:22:21.032Z,8.90
2019-05-22T14:24:50.376Z,8.33
2019-05-22T14:27:19.814Z,8.37
2019-05-22T14:29:49.209Z,11.90
2019-05-22T14:32:19.045Z,9.93
2019-05-22T14:34:48.481Z,9.83
2019-05-22T14:37:17.840Z,10.30
2019-05-22T14:39:47.406Z,8.87
2019-05-22T14:42:18.912Z,8.30
2019-05-22T14:44:48.930Z,8.90
2019-05-22T14:47:19.458Z,8.17
2019-05-22T14:49:48.709Z,9.27
2019-05-22T14:52:18.115Z,11.93
2019-05-22T14:54:48.497Z,9.33
2019-05-22T14:57:19.225Z,8.23
2019-05-22T14:59:48.333Z,9.73
2019-05-22T15:02:18.436Z,9.70
2019-05-22T15:04:48.578Z,11.17
2019-05-22T15:07:17.749Z,10.40
2019-05-22T15:09:47.675Z,8.70
2019-05-22T15:12:41.916Z,9.93
2019-05-22T15:15:28.586Z,9.63
2019-05-22T15:17:58.716Z,10.33
2019-05-22T15:20:47.541Z,8.63
2019-05-22T15:23:16.948Z,9.57
2019-05-22T15:25:48.861Z,7.63
2019-05-22T15:28:26.710Z,10.43
2019-05-22T15:30:55.061Z,8.77
2019-05-22T15:33:25.849Z,9.37
2019-05-22T15:35:55.871Z,14.37
2019-05-22T15:38:26.110Z,9.17
2019-05-22T15:40:55.707Z,9.67
2019-05-22T15:43:26.941Z,8.53
2019-05-22T15:45:57.427Z,8.33
2019-05-22T15:48:30.379Z,9.03
2019-05-22T15:51:06.847Z,9.80
2019-05-22T15:53:38.177Z,9.87
2019-05-22T15:56:12.132Z,10.00
2019-05-22T15:58:49.689Z,11.67
2019-05-22T16:01:25.290Z,10.87
2019-05-22T16:03:56.082Z,12.13
2019-05-22T16:06:25.848Z,11.10
2019-05-22T16:08:55.671Z,10.70
2019-05-22T16:11:27.691Z,10.13
2019-05-22T16:14:00.932Z,10.33
2019-05-22T16:16:30.226Z,9.60
2019-05-22T16:19:05.143Z,9.63
2019-05-22T16:21:35.182Z,9.47
2019-05-22T16:24:07.329Z,9.87
2019-05-22T16:26:36.627Z,10.37
2019-05-22T16:29:07.380Z,11.63
2019-05-22T16:31:39.672Z,11.30
2019-05-22T16:34:09.127Z,9.50
2019-05-22T16:36:38.842Z,11.27
2019-05-22T16:39:10.965Z,7.80
2019-05-22T16:41:41.978Z,12.13
2019-05-22T16:44:12.252Z,15.97
2019-05-22T16:46:42.737Z,9.07
2019-05-22T16:49:13.690Z,10.97
2019-05-22T16:52:02.229Z,10.13
2019-05-22T16:54:33.297Z,11.17
2019-05-22T16:57:02.784Z,9.93
2019-05-22T16:59:37.090Z,9.33
2019-05-22T17:02:06.907Z,11.33
2019-05-22T17:04:36.636Z,9.13
2019-05-22T17:07:07.063Z,8.63
2019-05-22T17:09:37.779Z,10.03
2019-05-22T17:12:09.669Z,10.23
2019-05-22T17:14:39.108Z,11.43
2019-05-22T17:17:10.194Z,10.17
2019-05-22T17:19:39.305Z,9.47
2019-05-22T17:22:09.502Z,9.17
2019-05-22T17:24:39.505Z,11.27
2019-05-22T17:27:10.219Z,10.27
2019-05-22T17:29:39.515Z,8.80
2019-05-22T17:32:10.438Z,9.10
2019-05-22T17:34:39.840Z,9.47
2019-05-22T17:37:13.809Z,11.13
2019-05-22T17:39:46.949Z,11.70
2019-05-22T17:42:18.169Z,9.57
2019-05-22T17:44:49.507Z,10.17
2019-05-22T17:47:20.765Z,10.93
2019-05-22T17:49:50.926Z,8.17
2019-05-22T17:52:20.884Z,10.03
2019-05-22T17:54:51.876Z,8.60
2019-05-22T17:57:23.088Z,9.63
2019-05-22T17:59:53.716Z,10.73
2019-05-22T18:02:26.418Z,10.10
2019-05-22T18:04:55.405Z,10.57
2019-05-22T18:07:25.757Z,10.47
2019-05-22T18:09:55.341Z,10.07
2019-05-22T18:12:24.512Z,9.40
2019-05-22T18:14:54.008Z,9.27
2019-05-22T18:17:26.375Z,11.20
2019-05-22T18:19:55.837Z,10.37
2019-05-22T18:22:25.148Z,16.33
2019-05-22T18:24:54.206Z,15.53
2019-05-22T18:27:25.422Z,10.60
2019-05-22T18:29:54.500Z,13.20
2019-05-22T18:32:23.620Z,12.00
2019-05-22T18:34:53.489Z,12.70
2019-05-22T18:37:22.644Z,15.27
2019-05-22T18:39:51.695Z,13.40
2019-05-22T18:42:22.278Z,13.60
2019-05-22T18:44:51.550Z,13.47
2019-05-22T18:47:21.255Z,13.57
2019-05-22T18:49:50.482Z,10.17
2019-05-22T18:52:19.980Z,9.83
2019-05-22T18:54:49.285Z,10.10
2019-05-22T18:57:18.590Z,9.67
2019-05-22T18:59:47.796Z,11.93
2019-05-22T19:02:16.965Z,9.73
2019-05-22T19:04:46.068Z,15.60
2019-05-22T19:07:15.393Z,13.00
2019-05-22T19:09:44.491Z,12.70
2019-05-22T19:12:13.699Z,11.97
2019-05-22T19:14:42.887Z,11.60
2019-05-22T19:51:25.700Z,14.47
2019-05-22T19:54:12.691Z,13.17
2019-05-22T19:56:45.216Z,13.83
2019-05-22T19:59:15.841Z,11.33
2019-05-22T20:01:46.734Z,14.37
2019-05-22T20:04:17.333Z,14.47
2019-05-22T20:06:49.792Z,18.37
2019-05-22T20:09:20.502Z,13.57
2019-05-22T20:11:50.148Z,11.73
2019-05-22T20:14:19.552Z,12.20
2019-05-22T20:16:49.202Z,14.50
2019-05-22T20:19:22.674Z,19.47
2019-05-22T20:21:51.828Z,14.67
2019-05-22T20:24:21.066Z,17.53
2019-05-22T20:26:50.874Z,13.63
2019-05-22T20:29:20.372Z,14.87
2019-05-22T20:31:50.134Z,14.57
2019-05-22T20:34:22.659Z,13.10
2019-05-22T20:36:51.769Z,16.97
2019-05-22T20:39:21.448Z,14.23
2019-05-22T20:41:51.688Z,14.50
2019-05-22T20:44:24.263Z,13.87
2019-05-22T20:46:53.192Z,14.50
2019-05-22T20:49:22.643Z,18.43
2019-05-22T20:51:52.454Z,17.43
2019-05-22T20:54:21.873Z,14.70
2019-05-22T20:56:54.390Z,13.40
2019-05-22T20:59:24.454Z,17.93
2019-05-22T21:01:54.096Z,14.43
2019-05-22T21:04:25.204Z,16.03
2019-05-22T21:07:00.033Z,20.33
2019-05-22T21:09:29.701Z,17.23
2019-05-22T21:12:01.265Z,13.87
2019-05-22T21:14:30.767Z,13.73
2019-05-22T21:17:00.936Z,14.97
2019-05-22T21:19:31.432Z,16.23
2019-05-22T21:22:00.953Z,14.43
2019-05-22T21:24:32.120Z,13.47
2019-05-22T21:27:01.840Z,23.57
2019-05-22T21:29:31.818Z,18.23
2019-05-22T21:32:00.692Z,22.20
2019-05-22T21:34:31.265Z,18.17
2019-05-22T21:37:00.851Z,19.93
2019-05-22T21:39:30.155Z,18.57
2019-05-22T21:42:00.341Z,16.27
2019-05-22T21:44:31.186Z,27.20
2019-05-22T21:47:02.142Z,21.77
2019-05-22T21:49:32.024Z,17.07
2019-05-22T21:52:01.592Z,15.07
2019-05-22T21:54:32.349Z,17.00
2019-05-22T21:57:01.501Z,14.17
2019-05-22T21:59:30.630Z,17.33
2019-05-22T22:02:09.331Z,15.53
2019-05-22T22:04:38.705Z,27.73
2019-05-22T22:07:09.375Z,23.70
2019-05-22T22:09:39.363Z,14.07
2019-05-22T22:12:17.296Z,16.47
2019-05-22T22:14:48.266Z,16.83
2019-05-22T22:17:18.944Z,18.57
2019-05-22T22:19:49.287Z,41.10
2019-05-22T22:22:30.728Z,18.23
2019-05-22T22:25:00.809Z,17.37
2019-05-22T22:27:31.370Z,16.57
2019-05-22T22:30:02.646Z,17.67
2019-05-22T22:32:34.182Z,19.50
2019-05-22T22:35:04.649Z,18.17
2019-05-22T22:37:33.588Z,18.40
2019-05-22T22:40:02.748Z,17.30
2019-05-22T22:42:36.952Z,19.80
2019-05-22T22:45:08.799Z,14.13
2019-05-22T22:47:40.863Z,17.23
2019-05-22T22:50:11.273Z,23.73
2019-05-22T22:52:42.025Z,15.60
2019-05-22T22:55:13.043Z,20.33
2019-05-22T22:57:42.748Z,20.60
2019-05-22T23:00:16.436Z,20.53
2019-05-22T23:02:47.984Z,16.57
2019-05-22T23:05:17.666Z,22.03
2019-05-22T23:07:48.763Z,18.10
2019-05-22T23:10:19.269Z,17.73
2019-05-22T23:12:48.641Z,17.80
2019-05-22T23:15:19.104Z,16.57
2019-05-22T23:17:48.653Z,18.27
2019-05-22T23:20:17.447Z,16.23
2019-05-22T23:22:45.610Z,17.37
2019-05-22T23:25:15.827Z,19.43
2019-05-22T23:27:45.215Z,18.27
2019-05-22T23:30:16.346Z,19.90
2019-05-22T23:32:47.013Z,18.37
2019-05-22T23:35:17.102Z,19.53
2019-05-22T23:37:46.313Z,21.30
2019-05-22T23:40:20.616Z,19.20
2019-05-22T23:42:50.300Z,19.60
2019-05-22T23:45:22.607Z,22.03
2019-05-22T23:48:03.383Z,19.27
2019-05-22T23:50:35.190Z,19.97
2019-05-22T23:53:04.924Z,19.70
2019-05-22T23:55:34.120Z,18.90
2019-05-22T23:58:03.202Z,17.83
